Time;durP1;ratioP1;P1;durP2;ratioP2;P2;SDS_P1;SDS_P2;PMS_P1;PMS_P2;Temp;Humidity;BMP_temperature;BMP_pressure;BME280_temperature;BME280_humidity;BME280_pressure;Samples;Min_cycle;Max_cycle;Signal;HPM_P1;HPM_P2
2021/12/12 00:02:33;;;;;;;28.48;7.55;;;;;;;-9.94;72.73;100939.41;4842384;29;20049;-64
2021/12/12 00:05:08;;;;;;;20.05;6.47;;;;;;;-9.88;73.22;100935.19;4839150;29;20108;-65
2021/12/12 00:07:36;;;;;;;26.13;7.18;;;;;;;-9.83;72.84;100944.44;4841429;29;20094;-64
2021/12/12 00:10:11;;;;;;;18.85;6.32;;;;;;;-9.75;72.80;100936.38;4839223;29;20077;-63
2021/12/12 00:12:45;;;;;;;20.63;6.78;;;;;;;-9.75;72.82;100941.75;4857239;29;20061;-64
2021/12/12 00:15:13;;;;;;;25.40;7.63;;;;;;;-9.70;72.76;100943.94;4842677;29;20525;-65
2021/12/12 00:17:40;;;;;;;27.40;7.55;;;;;;;-9.64;72.72;100956.72;4840695;29;20083;-66
2021/12/12 00:20:11;;;;;;;22.88;7.97;;;;;;;-9.65;73.14;100944.28;4842013;29;20128;-64
2021/12/12 00:22:39;;;;;;;19.33;7.47;;;;;;;-9.68;72.70;100945.44;4840225;29;20148;-64
2021/12/12 00:25:08;;;;;;;20.13;7.03;;;;;;;-9.65;72.64;100947.81;4842137;29;20056;-63
2021/12/12 00:27:36;;;;;;;30.70;8.27;;;;;;;-9.68;72.78;100952.69;4839986;29;20053;-61
2021/12/12 00:30:05;;;;;;;15.70;6.20;;;;;;;-9.71;72.89;100958.44;4841871;29;20061;-59
2021/12/12 00:32:36;;;;;;;17.17;6.47;;;;;;;-9.75;73.05;100954.38;4841672;29;20110;-58
2021/12/12 00:35:09;;;;;;;17.75;5.65;;;;;;;-9.74;73.02;100954.19;4825303;29;20291;-59
2021/12/12 00:37:36;;;;;;;22.67;8.07;;;;;;;-9.68;73.50;100964.28;4841225;29;20110;-60
2021/12/12 00:40:16;;;;;;;18.30;7.07;;;;;;;-9.64;72.87;100965.66;4841268;29;20061;-51
2021/12/12 00:42:43;;;;;;;33.42;4.22;;;;;;;-9.68;73.28;100969.69;4840298;29;20418;-59
2021/12/12 00:45:13;;;;;;;20.85;8.48;;;;;;;-9.68;72.72;100958.09;4841479;29;20062;-58
2021/12/12 00:47:40;;;;;;;15.73;5.38;;;;;;;-9.72;73.11;100954.03;4839819;29;20054;-58
2021/12/12 00:50:16;;;;;;;23.77;6.40;;;;;;;-9.69;73.27;100962.63;4840759;29;20061;-59
2021/12/12 00:52:46;;;;;;;19.50;7.78;;;;;;;-9.72;73.13;100962.97;4840563;29;20130;-58
2021/12/12 00:55:13;;;;;;;;;;;;;;;-9.73;73.79;100972.06;4838964;29;20054;-57
2021/12/12 00:57:41;;;;;;;31.30;9.45;;;;;;;-9.71;73.77;100980.78;4841007;29;19971;-56
2021/12/12 01:00:11;;;;;;;37.33;10.52;;;;;;;-9.72;73.45;100964.81;4841094;29;20068;-60
2021/12/12 01:02:39;;;;;;;38.50;12.85;;;;;;;-9.78;73.61;100974.41;4840945;29;20058;-59
2021/12/12 01:05:07;;;;;;;34.35;10.07;;;;;;;-9.77;73.70;100975.25;4840929;29;20103;-62
2021/12/12 01:07:37;;;;;;;30.23;10.05;;;;;;;-9.80;73.42;100962.94;4841183;29;20062;-60
2021/12/12 01:10:12;;;;;;;19.30;7.05;;;;;;;-9.80;73.34;100965.63;4841091;29;20061;-61
2021/12/12 01:12:40;;;;;;;26.70;10.52;;;;;;;-9.76;73.58;100960.78;4841263;29;20089;-60
2021/12/12 01:15:25;;;;;;;33.72;10.85;;;;;;;-9.70;73.93;100971.72;4841026;29;20574;-59
2021/12/12 01:17:58;;;;;;;19.67;6.72;;;;;;;-9.73;73.72;100974.75;4840008;29;20058;-61
2021/12/12 01:20:46;;;;;;;39.22;16.58;;;;;;;-9.74;73.66;100974.91;4839729;29;20057;-60
2021/12/12 01:23:18;;;;;;;27.20;8.15;;;;;;;-9.77;73.80;100970.69;4839485;29;20137;-60
2021/12/12 01:25:48;;;;;;;37.42;11.18;;;;;;;-9.74;73.68;100969.53;4840935;29;20518;-60
2021/12/12 01:28:18;;;;;;;20.35;7.15;;;;;;;-9.77;73.85;100964.47;4839735;29;20056;-60
2021/12/12 01:30:46;;;;;;;37.75;9.55;;;;;;;-9.77;74.25;100956.41;4840884;29;20514;-58
2021/12/12 01:33:21;;;;;;;40.50;11.32;;;;;;;-9.74;74.49;100954.19;4839632;29;20049;-52
2021/12/12 01:35:51;;;;;;;25.38;8.05;;;;;;;-9.74;74.10;100959.59;4840090;29;20137;-59
2021/12/12 01:41:03;;;;;;;31.00;7.72;;;;;;;-9.73;74.29;100938.91;4840726;29;20095;-58
2021/12/12 01:43:40;;;;;;;31.50;8.93;;;;;;;-9.68;74.00;100926.59;4840256;29;20054;-58
2021/12/12 01:46:37;;;;;;;31.55;10.20;;;;;;;-9.66;74.13;100935.38;4839843;29;20110;-58
2021/12/12 01:49:20;;;;;;;30.40;8.80;;;;;;;-9.66;74.15;100935.38;4832621;29;20069;-58
2021/12/12 01:51:49;;;;;;;37.83;11.38;;;;;;;-9.64;74.17;100940.56;4840172;29;20054;-58
2021/12/12 01:54:25;;;;;;;34.78;9.88;;;;;;;-9.61;74.38;100933.00;4840544;29;20062;-54
2021/12/12 01:56:59;;;;;;;34.55;9.82;;;;;;;-9.53;74.03;100934.00;4840799;29;20136;-57
2021/12/12 01:59:31;;;;;;;36.70;10.30;;;;;;;-9.54;74.30;100932.34;4840982;29;20066;-56
2021/12/12 02:02:23;;;;;;;40.10;10.40;;;;;;;-9.51;74.15;100938.19;4840886;29;20391;-60
2021/12/12 02:04:56;;;;;;;27.52;9.88;;;;;;;-9.52;74.18;100935.69;4839295;29;20057;-56
2021/12/12 02:07:26;;;;;;;16.83;5.03;;;;;;;-9.53;74.26;100945.63;4840586;29;20077;-59
2021/12/12 02:09:58;;;;;;;37.17;10.35;;;;;;;-9.60;74.45;100929.31;4839030;29;20423;-58
2021/12/12 02:12:25;;;;;;;29.52;9.18;;;;;;;-9.62;74.24;100923.22;4840637;29;20065;-62
2021/12/12 02:14:54;;;;;;;34.00;10.05;;;;;;;-9.57;74.13;100921.91;4837725;29;20050;-62
2021/12/12 02:17:31;;;;;;;36.45;10.43;;;;;;;-9.57;74.50;100929.97;4839298;29;20092;-60
2021/12/12 02:20:13;;;;;;;28.38;7.47;;;;;;;-9.54;74.65;100921.56;4838956;29;20526;-61
2021/12/12 02:23:02;;;;;;;19.95;7.97;;;;;;;-9.49;74.51;100927.25;4840380;29;20070;-62
2021/12/12 02:36:37;;;;;;;27.00;8.45;;;;;;;-9.35;74.57;100910.41;4837523;29;20079;-62
2021/12/12 02:39:15;;;;;;;14.13;5.20;;;;;;;-9.32;74.28;100910.06;4839914;29;20049;-63
2021/12/12 02:41:47;;;;;;;30.33;7.85;;;;;;;-9.33;73.91;100914.59;4839227;29;20062;-64
2021/12/12 02:44:27;;;;;;;25.98;7.45;;;;;;;-9.35;74.45;100918.50;4840439;29;20466;-63
2021/12/12 02:46:58;;;;;;;27.38;8.50;;;;;;;-9.35;74.35;100921.19;4842128;29;20050;-62
2021/12/12 02:49:43;;;;;;;22.70;7.28;;;;;;;-9.31;74.74;100938.66;4843615;29;20062;-62
2021/12/12 02:52:14;;;;;;;29.90;8.23;;;;;;;-9.27;74.17;100935.47;4841450;29;20066;-65
2021/12/12 02:54:43;;;;;;;30.45;9.00;;;;;;;-9.21;74.44;100912.41;4842472;29;20548;-61
2021/12/12 02:57:13;;;;;;;28.42;8.70;;;;;;;-9.17;74.82;100908.34;4843799;29;20111;-61
2021/12/12 02:59:43;;;;;;;30.52;7.93;;;;;;;-9.15;74.28;100917.09;4842233;29;20058;-61
2021/12/12 03:02:14;;;;;;;29.27;8.30;;;;;;;-9.16;74.57;100908.16;4840455;29;20069;-62
2021/12/12 03:04:41;;;;;;;27.23;7.53;;;;;;;-9.14;74.47;100908.84;4841836;29;20049;-64
2021/12/12 03:07:10;;;;;;;30.00;7.63;;;;;;;-9.11;74.21;100913.03;4843298;29;20049;-63
2021/12/12 03:09:42;;;;;;;26.98;7.20;;;;;;;-9.11;73.95;100907.66;4842425;29;20069;-61
2021/12/12 03:12:16;;;;;;;29.38;9.43;;;;;;;-9.18;74.93;100920.97;4843220;29;20057;-63
2021/12/12 03:14:45;;;;;;;26.73;8.07;;;;;;;-9.21;75.15;100909.72;4842200;29;20060;-60
2021/12/12 03:17:17;;;;;;;29.60;8.73;;;;;;;-9.21;74.39;100912.41;4842498;29;20167;-60
2021/12/12 03:19:48;;;;;;;23.27;7.95;;;;;;;-9.22;75.09;100897.22;4841894;29;20137;-60
2021/12/12 03:22:15;;;;;;;23.77;6.68;;;;;;;-9.24;75.02;100900.09;4843302;29;20429;-60
2021/12/12 03:24:43;;;;;;;32.40;9.13;;;;;;;-9.17;74.17;100902.94;4841990;29;20084;-60
2021/12/12 03:27:11;;;;;;;36.08;9.00;;;;;;;-9.15;74.59;100901.75;4842940;29;20060;-60
2021/12/12 03:29:41;;;;;;;39.17;11.25;;;;;;;-9.11;74.55;100902.25;4842501;29;20458;-60
2021/12/12 03:32:11;;;;;;;31.55;8.95;;;;;;;-9.13;74.97;100893.50;4842867;29;20057;-60
2021/12/12 03:34:42;;;;;;;27.90;8.15;;;;;;;-9.09;74.79;100889.47;4842934;29;20049;-62
2021/12/12 03:37:12;;;;;;;25.40;8.45;;;;;;;-9.06;74.62;100902.59;4843212;29;20066;-60
2021/12/12 03:39:41;;;;;;;27.23;10.25;;;;;;;-9.07;74.20;100893.66;4842498;29;20410;-61
2021/12/12 03:42:18;;;;;;;18.02;7.88;;;;;;;-9.07;74.67;100876.63;4842792;29;20053;-63
2021/12/12 03:44:47;;;;;;;26.05;8.38;;;;;;;-9.06;74.70;100878.34;4841639;29;20042;-64
2021/12/12 03:47:20;;;;;;;44.45;9.90;;;;;;;-9.09;75.17;100889.47;4839429;29;20057;-60
2021/12/12 03:49:49;;;;;;;33.72;8.93;;;;;;;-9.08;74.33;100886.59;4841271;29;20057;-63
2021/12/12 03:52:18;;;;;;;39.35;9.85;;;;;;;-9.04;74.88;100895.16;4843098;29;20157;-63
2021/12/12 03:54:47;;;;;;;35.75;9.30;;;;;;;-9.02;75.36;100893.13;4840431;29;20052;-65
2021/12/12 03:57:17;;;;;;;25.63;7.13;;;;;;;-9.04;74.41;100909.47;4838748;29;20053;-65
2021/12/12 03:59:44;;;;;;;26.85;7.70;;;;;;;-9.08;74.86;100896.53;4841964;29;20135;-68
2021/12/12 04:02:12;;;;;;;28.13;9.00;;;;;;;-9.08;75.53;100901.91;4842349;29;20511;-65
2021/12/12 04:04:42;;;;;;;32.25;8.98;;;;;;;-9.07;75.50;100895.50;4841746;29;20586;-65
2021/12/12 04:07:18;;;;;;;27.63;8.15;;;;;;;-9.07;74.54;100882.03;4842626;29;20145;-65
2021/12/12 04:09:46;;;;;;;31.85;8.43;;;;;;;-9.01;75.40;100892.09;4841311;29;20064;-67
2021/12/12 04:12:17;;;;;;;25.25;9.13;;;;;;;-8.99;75.35;100892.78;4842127;29;20066;-64
2021/12/12 04:14:46;;;;;;;29.40;9.38;;;;;;;-9.00;75.49;100883.03;4841508;29;20094;-67
2021/12/12 04:17:16;;;;;;;21.73;7.70;;;;;;;-9.00;74.89;100889.22;4842041;29;20088;-68
2021/12/12 04:19:46;;;;;;;28.85;8.95;;;;;;;-9.00;75.27;100915.38;4841706;29;20088;-67
2021/12/12 04:22:13;;;;;;;35.45;9.45;;;;;;;-9.01;74.44;100914.50;4841674;29;20062;-64
2021/12/12 04:24:44;;;;;;;31.63;8.90;;;;;;;-8.94;74.80;100917.38;4841686;29;20101;-68
2021/12/12 04:27:13;;;;;;;46.33;11.57;;;;;;;-8.91;75.06;100917.00;4841825;29;20054;-67
2021/12/12 04:29:44;;;;;;;32.25;10.13;;;;;;;-8.86;74.98;100902.00;4841619;29;20057;-68
2021/12/12 04:32:23;;;;;;;34.55;9.30;;;;;;;-8.86;74.44;100901.16;4841221;29;20058;-64
2021/12/12 04:34:57;;;;;;;33.17;9.30;;;;;;;-8.83;74.40;100914.28;4840747;29;20061;-65
2021/12/12 04:37:25;;;;;;;31.00;10.15;;;;;;;-8.86;75.17;100925.44;4839017;29;20056;-64
2021/12/12 04:39:57;;;;;;;20.05;6.35;;;;;;;-8.92;75.22;100924.25;4840538;29;20061;-65
2021/12/12 04:42:31;;;;;;;39.97;9.25;;;;;;;-8.96;74.82;100922.94;4842103;29;20049;-64
2021/12/12 04:45:26;;;;;;;37.33;11.20;;;;;;;-8.89;75.22;100928.47;4840414;29;20081;-64
2021/12/12 04:51:02;;;;;;;41.70;10.13;;;;;;;-8.90;75.02;100926.78;4841772;29;20417;-65
2021/12/12 04:53:47;;;;;;;29.90;8.65;;;;;;;-8.89;74.58;100939.25;4840076;29;20089;-65
2021/12/12 04:56:58;;;;;;;46.63;12.90;;;;;;;-8.83;74.42;100930.47;4841895;29;20057;-68
2021/12/12 04:59:46;;;;;;;28.67;8.70;;;;;;;-8.84;74.71;100931.47;4841422;29;20589;-68
2021/12/12 05:02:19;;;;;;;30.75;9.23;;;;;;;-8.82;74.26;100934.84;4841191;29;20429;-67
2021/12/12 05:05:21;;;;;;;29.48;10.23;;;;;;;-8.80;74.34;100941.72;4841042;29;20081;-67
2021/12/12 05:07:56;;;;;;;38.72;9.65;;;;;;;-8.90;74.94;100937.56;4841487;29;20567;-69
2021/12/12 05:10:34;;;;;;;39.97;15.18;;;;;;;-8.86;74.87;100950.50;4839969;29;20072;-65
2021/12/12 05:13:10;;;;;;;35.20;10.23;;;;;;;-8.90;74.60;100949.19;4841547;29;20077;-68
2021/12/12 05:15:43;;;;;;;31.70;9.73;;;;;;;-8.93;74.48;100937.91;4841459;29;20052;-65
2021/12/12 05:18:22;;;;;;;38.08;10.50;;;;;;;-8.94;75.59;100944.31;4840836;29;20057;-65
2021/12/12 05:20:56;;;;;;;45.60;14.23;;;;;;;-8.90;73.96;100943.78;4838191;29;20080;-60
2021/12/12 05:23:26;;;;;;;53.17;11.93;;;;;;;-8.91;74.89;100949.34;4839611;29;20166;-58
2021/12/12 05:26:19;;;;;;;27.75;9.30;;;;;;;-8.92;74.46;100951.19;4841405;29;20053;-63
2021/12/12 05:28:58;;;;;;;37.75;10.52;;;;;;;-8.90;74.92;100948.34;4837909;29;20062;-64
2021/12/12 05:31:26;;;;;;;27.75;7.25;;;;;;;-8.86;74.32;100944.28;4840989;29;20589;-64
2021/12/12 05:33:54;;;;;;;35.85;10.82;;;;;;;-8.80;74.62;100947.13;4839759;29;20050;-58
2021/12/12 05:36:23;;;;;;;29.55;7.93;;;;;;;-8.76;74.42;100942.22;4839566;29;20513;-63
2021/12/12 05:38:51;;;;;;;31.20;8.93;;;;;;;-8.74;74.08;100948.28;4840062;29;20062;-61
2021/12/12 05:41:20;;;;;;;28.98;8.90;;;;;;;-8.69;74.44;100943.19;4841111;29;20443;-61
2021/12/12 05:43:52;;;;;;;32.45;8.50;;;;;;;-8.71;74.73;100931.78;4839466;29;20054;-65
2021/12/12 05:46:20;;;;;;;46.28;10.23;;;;;;;-8.80;74.89;100927.44;4840738;29;20436;-59
2021/12/12 05:48:50;;;;;;;37.65;11.25;;;;;;;-8.73;74.05;100933.78;4839359;29;20057;-64
2021/12/12 05:51:18;;;;;;;35.43;8.13;;;;;;;-8.73;74.46;100949.97;4839528;29;20054;-60
2021/12/12 05:53:45;;;;;;;31.15;9.48;;;;;;;-8.74;74.73;100935.63;4838346;29;20066;-61
2021/12/12 05:56:13;;;;;;;41.90;12.25;;;;;;;-8.70;73.89;100939.69;4840708;29;20112;-61
2021/12/12 05:58:41;;;;;;;39.42;10.55;;;;;;;-8.67;74.47;100946.56;4839492;29;20058;-65
2021/12/12 06:01:10;;;;;;;36.45;8.90;;;;;;;-8.69;75.13;100940.50;4840525;29;20598;-60
2021/12/12 06:03:41;;;;;;;32.13;10.70;;;;;;;-8.72;74.04;100940.84;4838962;29;20062;-65
2021/12/12 06:06:14;;;;;;;34.10;9.80;;;;;;;-8.76;74.27;100940.38;4839281;29;20060;-60
2021/12/12 06:08:43;;;;;;;34.25;9.77;;;;;;;-8.77;74.16;100951.34;4839400;29;20062;-60
2021/12/12 06:11:13;;;;;;;;;;;;;;;-8.78;75.47;100952.34;4840717;29;20066;-64
2021/12/12 06:13:41;;;;;;;26.85;8.65;;;;;;;-8.83;74.65;100949.34;4839342;29;19959;-66
2021/12/12 06:16:08;;;;;;;32.38;9.77;;;;;;;-8.84;75.33;100947.63;4840628;29;20137;-61
2021/12/12 06:18:36;;;;;;;30.58;9.38;;;;;;;-8.84;74.84;100953.03;4839040;29;20647;-61
2021/12/12 06:21:04;;;;;;;37.28;10.82;;;;;;;-8.84;74.13;100958.41;4842341;29;20140;-58
2021/12/12 06:23:32;;;;;;;51.15;11.73;;;;;;;-8.82;74.78;100951.00;4843000;29;20060;-58
2021/12/12 06:25:59;;;;;;;42.00;10.90;;;;;;;-8.87;74.37;100945.28;4844191;29;20046;-61
2021/12/12 06:28:30;;;;;;;41.30;10.60;;;;;;;-8.93;75.41;100951.38;4843405;29;20072;-63
2021/12/12 06:30:58;;;;;;;27.40;9.85;;;;;;;-8.90;74.52;100951.03;4841289;29;20054;-63
2021/12/12 06:33:26;;;;;;;42.63;10.48;;;;;;;-8.87;75.42;100948.00;4843492;29;20105;-64
2021/12/12 06:35:54;;;;;;;40.03;11.40;;;;;;;-8.80;74.40;100946.28;4843699;29;20141;-58
2021/12/12 06:38:23;;;;;;;49.03;12.18;;;;;;;-8.75;75.01;100938.50;4843441;29;20514;-58
2021/12/12 06:40:51;;;;;;;42.42;10.65;;;;;;;-8.73;74.57;100936.47;4843965;29;20160;-58
2021/12/12 06:43:20;;;;;;;44.42;10.00;;;;;;;-8.70;74.44;100938.84;4844134;29;20081;-55
2021/12/12 06:45:49;;;;;;;48.70;11.68;;;;;;;-8.65;74.95;100953.47;4842821;29;20084;-63
2021/12/12 06:48:17;;;;;;;39.30;10.13;;;;;;;-8.63;74.83;100945.19;4844150;29;20126;-56
2021/12/12 06:50:47;;;;;;;51.13;12.18;;;;;;;-8.56;74.55;100943.50;4841143;29;20057;-56
2021/12/12 06:53:18;;;;;;;38.00;10.95;;;;;;;-8.54;74.18;100950.38;4843651;29;20057;-60
2021/12/12 06:55:47;;;;;;;43.92;11.60;;;;;;;-8.52;74.88;100947.50;4842140;29;20056;-63
2021/12/12 06:58:16;;;;;;;45.08;11.27;;;;;;;-8.54;75.22;100954.94;4843544;29;20589;-62
2021/12/12 07:00:48;;;;;;;46.83;10.02;;;;;;;-8.53;75.33;100959.31;4842119;29;20169;-60
2021/12/12 07:03:17;;;;;;;49.08;11.00;;;;;;;-8.47;74.92;100961.31;4843483;29;20058;-61
2021/12/12 07:05:45;;;;;;;36.17;8.48;;;;;;;-8.51;74.76;100954.56;4841941;29;20081;-63
2021/12/12 07:08:14;;;;;;;42.80;11.32;;;;;;;-8.53;74.38;100962.03;4843603;29;20060;-61
2021/12/12 07:10:42;;;;;;;51.33;14.75;;;;;;;-8.63;74.59;100958.69;4841969;29;20066;-62
2021/12/12 07:13:09;;;;;;;48.95;12.27;;;;;;;-8.66;74.52;100945.53;4842051;29;20148;-60
2021/12/12 07:15:42;;;;;;;46.60;12.32;;;;;;;-8.59;74.52;100946.53;4842341;29;20046;-62
2021/12/12 07:18:17;;;;;;;47.80;11.85;;;;;;;-8.51;74.19;100944.63;4843223;29;20053;-62
2021/12/12 07:20:48;;;;;;;34.20;10.70;;;;;;;-8.45;74.33;100948.47;4841296;29;20132;-65
2021/12/12 07:23:15;;;;;;;56.05;10.90;;;;;;;-8.44;74.18;100928.59;4843606;29;20064;-66
2021/12/12 07:25:44;;;;;;;52.72;12.95;;;;;;;-8.34;74.08;100926.50;4842091;29;20052;-66
2021/12/12 07:28:13;;;;;;;42.70;11.13;;;;;;;-8.30;73.90;100933.22;4843203;29;20058;-64
2021/12/12 07:30:40;;;;;;;46.45;12.82;;;;;;;-8.35;75.23;100933.75;4842280;29;20517;-66
2021/12/12 07:33:08;;;;;;;58.35;12.18;;;;;;;-8.39;74.28;100923.50;4841701;29;20049;-62
2021/12/12 07:35:39;;;;;;;46.05;10.65;;;;;;;-8.32;74.61;100932.56;4841448;29;20053;-66
2021/12/12 07:38:06;;;;;;;;;;;;;;;-8.31;75.22;100927.00;4843178;29;20050;-65
2021/12/12 07:40:34;;;;;;;56.30;13.48;;;;;;;-8.26;74.64;100931.84;4841707;29;20381;-63
2021/12/12 07:43:04;;;;;;;44.90;13.02;;;;;;;-8.19;73.80;100935.47;4842796;29;20087;-67
2021/12/12 07:45:33;;;;;;;36.30;10.07;;;;;;;-8.23;74.46;100924.22;4841345;29;20562;-64
2021/12/12 07:48:02;;;;;;;53.13;12.18;;;;;;;-8.20;73.99;100931.13;4842595;29;20518;-62
2021/12/12 07:50:30;;;;;;;45.80;11.25;;;;;;;-8.23;73.84;100932.31;4840253;29;20061;-66
2021/12/12 07:52:57;;;;;;;52.17;12.23;;;;;;;-8.20;74.93;100933.81;4825975;29;20053;-63
2021/12/12 07:55:26;;;;;;;48.05;11.57;;;;;;;-8.11;74.01;100932.75;4841680;29;20557;-63
2021/12/12 07:57:54;;;;;;;50.15;13.52;;;;;;;-8.08;74.50;100935.06;4842542;29;20068;-64
2021/12/12 08:00:24;;;;;;;40.15;10.40;;;;;;;-8.12;74.82;100939.13;4841933;29;20062;-63
2021/12/12 08:02:54;;;;;;;74.95;13.02;;;;;;;-8.16;73.93;100925.19;4842489;29;20061;-63
2021/12/12 08:05:28;;;;;;;49.20;11.68;;;;;;;-8.06;73.95;100933.03;4842223;29;20526;-63
2021/12/12 08:08:05;;;;;;;46.65;11.13;;;;;;;-7.98;74.25;100932.97;4842384;29;20050;-63
2021/12/12 08:10:34;;;;;;;39.60;10.40;;;;;;;-7.92;73.54;100937.66;4840874;29;20068;-63
2021/12/12 08:13:01;;;;;;;45.08;12.07;;;;;;;-7.88;74.85;100941.66;4842406;29;20085;-62
2021/12/12 08:15:29;;;;;;;49.67;12.90;;;;;;;-7.91;74.02;100936.63;4841118;29;20517;-63
2021/12/12 08:17:59;;;;;;;47.30;12.30;;;;;;;-7.98;74.92;100936.53;4839187;29;20156;-63
2021/12/12 08:20:31;;;;;;;45.70;13.02;;;;;;;-7.91;73.82;100932.06;4840651;29;20518;-62
2021/12/12 08:22:58;;;;;;;56.15;13.07;;;;;;;-7.85;74.78;100928.66;4841911;29;20046;-62
2021/12/12 08:25:27;;;;;;;46.00;11.10;;;;;;;-7.86;75.00;100916.19;4841430;29;20058;-62
2021/12/12 08:27:57;;;;;;;50.03;14.35;;;;;;;-7.89;73.92;100919.25;4841986;29;20094;-64
2021/12/12 08:30:24;;;;;;;57.13;12.55;;;;;;;-7.92;74.05;100907.94;4841889;29;20054;-63
2021/12/12 08:32:52;;;;;;;50.65;12.43;;;;;;;-7.87;74.90;100900.16;4841808;29;20065;-67
2021/12/12 08:35:21;;;;;;;45.55;12.65;;;;;;;-7.84;74.08;100886.28;4842067;29;20124;-63
2021/12/12 08:37:50;;;;;;;68.40;13.48;;;;;;;-7.79;73.85;100902.78;4842247;29;20050;-66
2021/12/12 08:40:22;;;;;;;60.38;13.63;;;;;;;-7.76;74.83;100910.50;4840657;29;20110;-66
2021/12/12 08:42:51;;;;;;;60.17;13.57;;;;;;;-7.81;74.99;100907.53;4841969;29;20075;-63
2021/12/12 08:45:23;;;;;;;70.07;12.63;;;;;;;-7.73;73.70;100907.44;4857374;29;20483;-62
2021/12/12 08:47:51;;;;;;;60.25;15.07;;;;;;;-7.68;73.89;100899.66;4841491;29;20144;-63
2021/12/12 08:50:25;;;;;;;60.63;13.95;;;;;;;-7.67;73.64;100906.75;4841832;29;20425;-62
2021/12/12 08:52:53;;;;;;;53.45;14.70;;;;;;;-7.67;74.80;100901.34;4841188;29;20537;-63
2021/12/12 08:55:30;;;;;;;70.68;14.60;;;;;;;-7.62;74.22;100907.03;4841725;29;20425;-64
2021/12/12 08:58:14;;;;;;;47.15;12.18;;;;;;;-7.60;73.65;100910.38;4841547;29;20057;-63
2021/12/12 09:01:05;;;;;;;64.72;13.45;;;;;;;-7.64;73.95;100914.47;4839319;29;20077;-62
2021/12/12 09:03:42;;;;;;;57.13;14.30;;;;;;;-7.65;75.06;100918.19;4841580;29;20054;-62
2021/12/12 09:06:13;;;;;;;48.33;13.65;;;;;;;-7.65;73.91;100915.47;4840063;29;20046;-63
2021/12/12 09:08:53;;;;;;;60.22;13.23;;;;;;;-7.52;73.64;100912.16;4841337;29;20122;-65
2021/12/12 09:11:28;;;;;;;70.78;13.77;;;;;;;-7.48;75.05;100917.03;4841032;29;20153;-65
2021/12/12 09:14:01;;;;;;;47.78;12.05;;;;;;;-7.47;73.68;100907.88;4839317;29;20054;-61
2021/12/12 09:16:46;;;;;;;62.85;13.63;;;;;;;-7.41;74.56;100907.16;4838331;29;20060;-61
2021/12/12 09:19:24;;;;;;;58.22;12.40;;;;;;;-7.33;74.53;100912.47;4839821;29;20704;-60
2021/12/12 09:22:15;;;;;;;51.72;11.35;;;;;;;-7.34;73.72;100908.13;4841288;29;20140;-60
2021/12/12 09:25:10;;;;;;;59.72;13.45;;;;;;;-7.28;74.31;100923.59;4840614;29;20060;-59
2021/12/12 09:27:48;;;;;;;70.82;16.05;;;;;;;-7.24;74.91;100918.63;4839941;29;20498;-63
2021/12/12 09:30:26;;;;;;;49.85;14.90;;;;;;;-7.22;74.78;100905.78;4841152;29;20141;-59
2021/12/12 09:33:00;;;;;;;52.15;13.65;;;;;;;-7.13;74.32;100900.13;4839669;29;20135;-61
2021/12/12 09:35:37;;;;;;;54.42;12.85;;;;;;;-7.04;73.92;100901.69;4841075;29;20442;-62
2021/12/12 09:38:30;;;;;;;59.78;14.43;;;;;;;-6.94;73.91;100890.59;4840610;29;20092;-58
2021/12/12 09:41:23;;;;;;;79.45;18.63;;;;;;;-6.85;73.95;100884.91;4839346;29;20097;-60
2021/12/12 09:44:27;;;;;;;59.67;14.90;;;;;;;-6.81;73.55;100888.88;4840697;29;20141;-57
2021/12/12 09:47:24;;;;;;;62.45;15.32;;;;;;;-6.79;73.73;100892.25;4840988;29;20060;-61
2021/12/12 09:54:00;;;;;;;47.30;13.88;;;;;;;-6.68;73.63;100883.66;4827950;29;20062;-60
2021/12/12 09:57:03;;;;;;;57.58;13.55;;;;;;;-6.68;74.26;100886.38;4802167;29;20093;-65
2021/12/12 10:00:08;;;;;;;48.35;14.77;;;;;;;-6.68;74.24;100889.06;4839418;29;20050;-59
2021/12/12 10:02:41;;;;;;;81.45;14.27;;;;;;;-6.60;73.92;100891.66;4828835;29;20118;-64
2021/12/12 10:05:40;;;;;;;76.97;16.38;;;;;;;-6.52;74.74;100880.72;4840263;29;20477;-63
2021/12/12 10:08:29;;;;;;;57.08;15.25;;;;;;;-6.59;74.65;100877.13;4839890;29;20060;-62
2021/12/12 10:11:08;;;;;;;56.42;16.17;;;;;;;-6.60;74.63;100880.84;4839006;29;20079;-63
2021/12/12 10:14:00;;;;;;;80.20;18.77;;;;;;;-6.67;75.17;100888.03;4840439;29;20145;-62
2021/12/12 10:16:54;;;;;;;69.63;15.25;;;;;;;-6.72;75.33;100882.34;4840281;29;20053;-62
2021/12/12 10:19:43;;;;;;;55.88;14.50;;;;;;;-6.74;74.95;100868.19;4839089;29;20176;-62
2021/12/12 10:22:28;;;;;;;53.95;14.75;;;;;;;-6.71;75.21;100862.41;4840215;29;20062;-63
2021/12/12 10:25:14;;;;;;;66.20;17.08;;;;;;;-6.69;75.48;100863.03;4840027;29;20057;-63
2021/12/12 10:28:02;;;;;;;62.38;18.13;;;;;;;-6.69;75.67;100859.50;4839026;29;20453;-62
2021/12/12 10:30:39;;;;;;;58.53;13.95;;;;;;;-6.70;75.49;100864.06;4840092;29;20518;-63
2021/12/12 10:33:15;;;;;;;68.32;15.25;;;;;;;-6.68;75.98;100872.84;4839208;29;20137;-64
2021/12/12 10:35:50;;;;;;;68.10;20.83;;;;;;;-6.67;75.62;100865.56;4839279;29;20050;-65
2021/12/12 10:38:24;;;;;;;60.30;14.98;;;;;;;-6.62;75.57;100871.25;4840276;29;20134;-66
2021/12/12 10:40:57;;;;;;;67.82;14.27;;;;;;;-6.59;76.62;100865.44;4839808;29;20057;-65
2021/12/12 10:43:33;;;;;;;55.75;13.93;;;;;;;-6.57;75.54;100869.63;4837198;29;20492;-66
2021/12/12 10:46:22;;;;;;;103.20;27.98;;;;;;;-6.48;75.81;100857.66;4839214;29;20472;-67
2021/12/12 10:49:12;;;;;;;75.57;15.68;;;;;;;-6.37;76.59;100850.94;4839960;29;20144;-65
2021/12/12 10:51:45;;;;;;;87.88;15.80;;;;;;;-6.37;76.08;100849.06;4840137;29;20525;-66
2021/12/12 10:54:21;;;;;;;51.97;13.32;;;;;;;-6.36;75.82;100850.75;4839660;29;20059;-67
2021/12/12 10:57:01;;;;;;;62.33;13.70;;;;;;;-6.29;75.95;100851.66;4837429;29;20056;-67
2021/12/12 10:59:36;;;;;;;73.30;16.58;;;;;;;-6.18;76.22;100859.28;4838961;29;20054;-65
2021/12/12 11:02:07;;;;;;;53.45;13.68;;;;;;;-6.11;75.87;100865.56;4840569;29;20061;-65
2021/12/12 11:04:44;;;;;;;63.60;17.67;;;;;;;-6.09;76.23;100866.22;4838364;29;20059;-65
2021/12/12 11:07:18;;;;;;;81.68;21.98;;;;;;;-6.11;76.04;100864.72;4841248;29;20140;-65
2021/12/12 11:09:48;;;;;;;79.72;17.08;;;;;;;-6.14;76.04;100875.94;4841709;29;20062;-65
2021/12/12 11:12:26;;;;;;;52.33;12.80;;;;;;;-6.16;76.17;100873.44;4842032;29;20068;-65
2021/12/12 11:15:17;;;;;;;73.35;17.23;;;;;;;-6.14;76.80;100876.78;4841649;29;20065;-65
2021/12/12 11:17:54;;;;;;;53.47;15.50;;;;;;;-6.14;76.17;100882.22;4842254;29;20064;-66
2021/12/12 11:20:26;;;;;;;74.25;15.63;;;;;;;-6.13;76.87;100886.59;4839893;29;20422;-65
2021/12/12 11:22:57;;;;;;;63.05;14.32;;;;;;;-6.16;76.71;100876.13;4840597;29;20061;-66
2021/12/12 11:25:30;;;;;;;65.93;15.55;;;;;;;-6.21;76.81;100875.91;4843291;29;20054;-65
2021/12/12 11:28:01;;;;;;;61.95;14.75;;;;;;;-6.19;76.64;100873.81;4841635;29;20050;-65
2021/12/12 11:31:00;;;;;;;58.78;14.32;;;;;;;-6.12;76.66;100873.88;4843335;29;20514;-65
2021/12/12 11:33:31;;;;;;;41.53;12.48;;;;;;;-6.09;76.58;100873.50;4840035;29;20073;-65
2021/12/12 11:35:59;;;;;;;45.63;13.20;;;;;;;-6.14;76.78;100865.97;4842762;29;20141;-65
2021/12/12 11:39:15;;;;;;;62.53;14.90;;;;;;;-6.07;77.15;100866.84;4843066;29;20418;-66
2021/12/12 11:42:08;;;;;;;60.50;14.80;;;;;;;-6.00;76.78;100858.81;4831800;29;20061;-65
2021/12/12 11:44:49;;;;;;;62.20;15.65;;;;;;;-5.98;77.19;100865.69;4841352;29;20172;-65
2021/12/12 11:47:35;;;;;;;52.03;14.25;;;;;;;-5.94;76.87;100849.91;4842665;29;20046;-65
2021/12/12 11:50:23;;;;;;;67.78;15.23;;;;;;;-5.88;76.67;100851.84;4842444;29;20422;-66
2021/12/12 11:53:37;;;;;;;50.35;13.02;;;;;;;-5.84;76.82;100859.38;4840075;29;20058;-65
2021/12/12 11:56:16;;;;;;;52.42;13.48;;;;;;;-5.82;77.15;100848.34;4790131;29;20051;-66
2021/12/12 11:59:10;;;;;;;64.07;15.00;;;;;;;-5.75;77.20;100860.88;4838846;29;20080;-65
2021/12/12 12:01:49;;;;;;;61.30;14.10;;;;;;;-5.78;77.04;100855.00;4841201;29;20094;-65
2021/12/12 12:04:50;;;;;;;62.88;15.85;;;;;;;-5.71;77.20;100859.44;4842351;29;20122;-64
2021/12/12 12:07:33;;;;;;;68.80;16.15;;;;;;;-5.75;77.19;100858.16;4842077;29;20136;-65